Cottonport, Louisiana
Current Conditions -  °F | °C
As of 6:15 AM on Friday 21 Nov 2014 (Local Time) from KOPL Reporting Station
Overcast Overcast  
Wind Chill: 55°   Ceiling: 9000
Heat Index: 55°   Visibility: 10mi
Dew Point: 50°   Wind: 7mph
Humidity: 82%   Direction: 140°SE
Pressure: 30.22"   Gusts: NA
Location:  30.98°N, 92.05°W
Report Text: KOPL 211215Z AUTO 14006KT 10SM OVC090 13/10 A3022 RMK AO2 T01300100
Loading
Personal Weather Stations






























Interactive Weather Map New forecast layout! Learn more

10-Day Weather Forecast

Advertisements
Track Severe Weather on mobile